Annandale, NJ (08801)

10:15 PM EST on December 08, 2016 (GMT -0500)
Allerton | | Change Station

Elev 200 ft 40.60 °N, 74.89 °W | Updated 16 seconds ago

Partly Cloudy
Partly Cloudy
33.9 °F
Feels Like 27 °F
N
8.0
Wind Variable Wind from West
Gusts 10.0 mph

Today
High -- | Low -- °F
--% Chance of Precip.
Yesterday
High -- | Low -- °F
Precip. -- in
Pressure 30.01 in
Visibility 10.0 miles
Clouds Clear
Windchill 27 °F
Dew Point 21 °F
Humidity 58%
Rainfall 0.76 in
Snow Depth Not available.
7:11 AM 4:32 PM
Waxing Gibbous, 69% visible
METAR KSMQ 090253Z AUTO VRB05KT 10SM CLR 01/M09 A3001 RMK AO2 SLP163 T00111089 53010
Pressure 30.01 in
Visibility 10.0 miles
Clouds Clear
Windchill 27 °F
Dew Point 21 °F
Humidity 58%
Rainfall 0.76 in
Snow Depth Not available.
7:11 AM 4:32 PM
Waxing Gibbous, 69% visible
METAR KSMQ 090253Z AUTO VRB05KT 10SM CLR 01/M09 A3001 RMK AO2 SLP163 T00111089 53010

10-Day Weather Forecast

Almanac

Astronomy

Dec. 08, 2016 Rise Set
Actual Time
Civil Twilight
Nautical Twilight
Astronomical Twilight
Moon
Length of Visible Light
Length of Day
Tomorrow will be .
, % of the Moon is Illuminated

Today's Extremes

State Highs State Lows

Community

WunderPhotos

Upload Photos

1,956,351 photos uploaded!

WunderBlog® & News

Nearby

Air Quality

  Air Quality AQ Index Pollutant
Not available.

Snow Depth

Station Depth Elevation

Earthquake Activity

City Distance Mag. Time & Date
Minimum magnitude displayed is 2.5.

Coastal Water Temperatures

Place Temperature

Stations

Nearby Weather Stations

Station Location Temp. Windchill Dew Point Humidity Wind Precip. Elev Updated Type
                   

Watches & Warnings

There are currently no watches in effect.